Time;durP1;ratioP1;P1;durP2;ratioP2;P2;SDS_P1;SDS_P2;PMS_P1;PMS_P2;Temp;Humidity;BMP_temperature;BMP_pressure;BME280_temperature;BME280_humidity;BME280_pressure;Samples;Min_cycle;Max_cycle;Signal;HPM_P1;HPM_P2
2022/06/25 00:00:39;;;;;;;2.57;2.37;;;18.90;99.90;;;;;;10432498;28;20225;-78
2022/06/25 00:05:41;;;;;;;2.80;2.70;;;18.90;99.90;;;;;;10422806;28;20201;-78
2022/06/25 00:10:44;;;;;;;3.70;2.93;;;18.90;99.90;;;;;;10456245;28;20217;-77
2022/06/25 00:15:47;;;;;;;2.97;2.77;;;18.90;99.90;;;;;;10431728;28;20209;-76
2022/06/25 00:20:49;;;;;;;3.00;2.80;;;18.80;99.90;;;;;;10435700;28;20221;-79
2022/06/25 00:25:53;;;;;;;2.93;2.83;;;18.80;99.90;;;;;;10442787;28;20197;-79
2022/06/25 00:30:56;;;;;;;3.63;2.83;;;18.70;99.90;;;;;;10461971;23;20319;-80
2022/06/25 00:35:58;;;;;;;3.00;2.90;;;18.70;99.90;;;;;;10420308;28;20631;-80
2022/06/25 00:41:03;;;;;;;2.33;2.23;;;18.70;99.90;;;;;;10430493;28;20294;-79
2022/06/25 00:46:06;;;;;;;3.63;2.73;;;18.70;99.90;;;;;;10454559;28;20193;-79
2022/06/25 00:51:13;;;;;;;3.17;2.97;;;18.60;99.90;;;;;;10436280;28;20225;-79
2022/06/25 00:56:17;;;;;;;3.53;3.23;;;18.70;99.90;;;;;;10435500;28;20217;-80
2022/06/25 01:01:20;;;;;;;3.43;3.10;;;18.60;99.90;;;;;;10448502;28;20256;-80
2022/06/25 01:06:23;;;;;;;3.03;2.83;;;18.70;99.90;;;;;;10451002;28;20284;-79
2022/06/25 01:11:27;;;;;;;3.40;3.17;;;18.70;99.90;;;;;;10435206;28;20291;-79
2022/06/25 01:16:29;;;;;;;3.00;2.80;;;18.70;99.90;;;;;;10453037;28;20225;-79
2022/06/25 01:21:32;;;;;;;3.10;2.90;;;18.70;99.90;;;;;;10435552;28;20220;-79
2022/06/25 01:26:37;;;;;;;3.00;2.90;;;18.70;99.90;;;;;;10458150;28;20247;-80
2022/06/25 01:31:42;;;;;;;3.87;3.57;;;18.70;99.90;;;;;;10443560;28;20777;-79
2022/06/25 01:36:44;;;;;;;2.77;2.57;;;18.70;99.90;;;;;;10461378;28;20217;-80
2022/06/25 01:41:47;;;;;;;2.67;2.57;;;18.70;99.90;;;;;;10441176;28;20928;-79
2022/06/25 01:46:50;;;;;;;2.80;2.70;;;18.70;99.90;;;;;;10443815;28;20204;-80
2022/06/25 01:51:52;;;;;;;2.57;2.37;;;18.60;99.90;;;;;;10443294;28;20225;-80
2022/06/25 01:56:55;;;;;;;2.97;2.77;;;18.60;99.90;;;;;;10443062;28;20747;-80
2022/06/25 02:01:58;;;;;;;2.80;2.40;;;18.50;99.90;;;;;;10426759;28;20708;-79
2022/06/25 02:07:00;;;;;;;5.13;2.60;;;18.50;99.90;;;;;;10442838;28;20228;-79
2022/06/25 02:12:04;;;;;;;2.60;2.40;;;18.50;99.90;;;;;;10440896;28;20581;-79
2022/06/25 02:17:07;;;;;;;2.80;2.60;;;18.50;99.90;;;;;;10443416;28;20236;-80
2022/06/25 02:22:14;;;;;;;2.70;2.50;;;18.40;99.90;;;;;;10460000;28;20759;-77
2022/06/25 02:27:17;;;;;;;2.80;2.40;;;18.40;99.90;;;;;;10459814;28;20612;-77
2022/06/25 02:32:19;;;;;;;2.67;2.57;;;18.40;99.90;;;;;;10459755;28;20279;-77
2022/06/25 02:37:21;;;;;;;3.10;2.90;;;18.40;99.90;;;;;;10458343;28;20225;-77
2022/06/25 02:42:25;;;;;;;3.10;2.90;;;18.30;99.90;;;;;;10441232;28;20236;-77
2022/06/25 02:47:27;;;;;;;2.70;2.60;;;18.30;99.90;;;;;;10424494;28;20198;-77
2022/06/25 02:52:42;;;;;;;2.83;2.63;;;18.30;99.90;;;;;;10424344;28;20225;-77
2022/06/25 03:03:14;;;;;;;3.07;2.87;;;18.30;99.90;;;;;;10440181;28;20255;-77
2022/06/25 03:08:17;;;;;;;3.00;2.80;;;18.30;99.90;;;;;;10412196;28;20204;-77
2022/06/25 03:13:21;;;;;;;3.07;2.97;;;18.30;99.90;;;;;;10451974;28;20223;-77
2022/06/25 03:18:24;;;;;;;4.63;2.87;;;18.30;99.90;;;;;;10451911;28;20267;-77
2022/06/25 03:23:55;;;;;;;2.83;2.73;;;18.20;99.90;;;;;;10425502;28;20226;-78
2022/06/25 03:28:59;;;;;;;3.60;3.30;;;18.20;99.90;;;;;;10431344;28;20206;-78
2022/06/25 03:34:03;;;;;;;3.70;3.40;;;18.20;99.90;;;;;;10409125;28;20317;-78
2022/06/25 03:39:18;;;;;;;3.53;3.43;;;18.20;99.90;;;;;;10429022;28;20205;-77
2022/06/25 03:44:23;;;;;;;3.00;2.90;;;18.20;99.90;;;;;;10430867;28;20251;-78
2022/06/25 03:49:32;;;;;;;3.20;3.10;;;18.20;99.90;;;;;;10424154;28;20221;-78
2022/06/25 03:54:41;;;;;;;2.73;2.53;;;18.20;99.90;;;;;;10432859;28;20222;-78
2022/06/25 03:59:46;;;;;;;3.53;3.30;;;18.30;99.90;;;;;;10405752;28;20231;-78
2022/06/25 04:04:58;;;;;;;3.20;3.10;;;18.30;99.90;;;;;;10417083;28;20228;-77
2022/06/25 04:10:01;;;;;;;3.33;3.23;;;18.30;99.90;;;;;;10412351;28;20217;-77
2022/06/25 04:15:05;;;;;;;3.10;2.90;;;18.30;99.90;;;;;;10448360;28;20217;-78
2022/06/25 04:20:10;;;;;;;3.20;3.10;;;18.40;99.90;;;;;;10435894;28;20235;-78
2022/06/25 04:25:13;;;;;;;3.17;3.07;;;18.40;99.90;;;;;;10427648;28;20247;-78
2022/06/25 04:30:16;;;;;;;3.93;3.40;;;18.40;99.90;;;;;;10453372;28;20236;-78
2022/06/25 04:35:23;;;;;;;3.73;3.53;;;18.50;99.90;;;;;;10435571;28;20224;-78
2022/06/25 04:40:29;;;;;;;2.53;2.40;;;18.50;99.90;;;;;;10433815;28;20590;-77
2022/06/25 04:45:33;;;;;;;3.03;2.83;;;18.60;99.90;;;;;;10437621;28;20246;-77
2022/06/25 04:50:54;;;;;;;4.43;3.27;;;18.60;99.90;;;;;;10438477;28;20304;-77
2022/06/25 04:55:56;;;;;;;2.70;2.60;;;18.70;99.90;;;;;;10420221;28;20221;-77
2022/06/25 05:01:00;;;;;;;3.50;3.40;;;18.70;99.90;;;;;;10438240;28;20213;-77
2022/06/25 05:06:06;;;;;;;3.27;3.10;;;18.80;99.90;;;;;;10424037;28;20326;-77
2022/06/25 05:11:08;;;;;;;3.60;3.40;;;18.80;99.90;;;;;;10427511;28;20239;-78
2022/06/25 05:16:12;;;;;;;3.03;2.83;;;18.90;99.90;;;;;;10430600;28;20221;-78
2022/06/25 05:21:15;;;;;;;2.60;2.47;;;18.90;99.90;;;;;;10426255;28;20251;-79
2022/06/25 05:26:18;;;;;;;2.90;2.80;;;18.90;99.90;;;;;;10423164;28;20204;-78
2022/06/25 05:31:22;;;;;;;2.20;2.10;;;19.00;99.90;;;;;;10419877;28;20648;-78
2022/06/25 05:36:24;;;;;;;2.90;2.80;;;19.00;99.90;;;;;;10426123;28;20696;-78
2022/06/25 05:41:26;;;;;;;3.00;2.90;;;19.00;99.90;;;;;;10447134;28;20236;-78
2022/06/25 05:46:30;;;;;;;2.40;2.20;;;19.00;99.90;;;;;;10446604;28;20223;-78
2022/06/25 05:51:32;;;;;;;3.10;2.90;;;19.00;99.90;;;;;;10415063;28;20228;-78
2022/06/25 05:56:34;;;;;;;4.50;4.20;;;19.00;99.90;;;;;;10438334;28;20223;-79
2022/06/25 06:01:37;;;;;;;9.30;8.57;;;19.10;99.90;;;;;;10419342;28;20225;-78
2022/06/25 06:06:40;;;;;;;9.80;9.00;;;19.10;99.90;;;;;;10432907;28;20195;-78
2022/06/25 06:11:42;;;;;;;4.27;3.97;;;19.20;99.90;;;;;;10449610;28;20225;-78
2022/06/25 06:16:45;;;;;;;3.93;3.70;;;19.20;99.90;;;;;;10456092;28;20233;-78
2022/06/25 06:21:47;;;;;;;3.60;3.40;;;19.30;99.90;;;;;;10454649;28;20245;-78
2022/06/25 06:26:49;;;;;;;2.60;2.50;;;19.40;99.90;;;;;;10439918;28;20189;-78
2022/06/25 06:31:53;;;;;;;4.20;2.57;;;19.50;99.90;;;;;;10506669;22;20307;-79
2022/06/25 06:36:55;;;;;;;3.40;3.10;;;19.60;99.90;;;;;;10506100;28;20234;-80
2022/06/25 06:41:57;;;;;;;2.77;2.63;;;19.80;99.90;;;;;;10482234;28;20248;-80
2022/06/25 06:47:01;;;;;;;7.03;3.10;;;19.90;99.90;;;;;;10480281;28;20196;-80
2022/06/25 06:52:04;;;;;;;3.90;2.83;;;20.20;99.90;;;;;;10485964;28;20740;-80
2022/06/25 06:57:06;;;;;;;3.40;3.20;;;20.40;99.90;;;;;;10485154;28;20227;-80
2022/06/25 07:02:09;;;;;;;2.70;2.60;;;20.70;99.90;;;;;;10502689;28;20224;-80
2022/06/25 07:07:11;;;;;;;2.83;2.60;;;20.90;99.90;;;;;;10491961;28;20288;-79
2022/06/25 07:12:13;;;;;;;3.30;2.37;;;21.10;99.90;;;;;;10484139;28;20220;-78
2022/06/25 07:17:17;;;;;;;2.37;2.27;;;21.40;99.90;;;;;;10498052;28;20228;-78
2022/06/25 07:22:19;;;;;;;2.63;2.43;;;21.70;99.90;;;;;;10464996;28;20662;-79
2022/06/25 07:27:21;;;;;;;3.33;2.80;;;21.90;99.90;;;;;;10499995;28;20273;-78
2022/06/25 07:32:25;;;;;;;2.20;2.10;;;22.20;99.90;;;;;;10499610;28;20335;-79
2022/06/25 07:37:28;;;;;;;2.60;2.20;;;22.50;99.90;;;;;;10492535;28;20248;-76
2022/06/25 07:42:30;;;;;;;2.57;2.37;;;22.90;99.90;;;;;;10492019;28;20212;-80
2022/06/25 07:47:38;;;;;;;2.57;2.40;;;23.30;99.90;;;;;;10494579;28;20201;-79
2022/06/25 07:52:41;;;;;;;2.90;2.70;;;23.50;99.90;;;;;;10496702;28;20590;-79
2022/06/25 07:57:43;;;;;;;3.63;2.50;;;23.60;99.90;;;;;;10496858;28;20632;-80
2022/06/25 08:02:46;;;;;;;2.57;2.37;;;24.00;99.90;;;;;;10494867;28;20232;-77
2022/06/25 08:07:49;;;;;;;2.47;2.37;;;24.80;99.90;;;;;;10493333;28;20955;-76
2022/06/25 08:12:51;;;;;;;2.20;2.10;;;25.70;99.90;;;;;;10492083;28;20605;-79
2022/06/25 08:17:55;;;;;;;3.70;2.60;;;26.00;99.90;;;;;;10494927;28;20632;-79
2022/06/25 08:22:57;;;;;;;2.50;2.30;;;26.00;99.90;;;;;;10475964;28;20704;-79
2022/06/25 08:27:59;;;;;;;3.30;2.53;;;26.00;99.80;;;;;;10493714;28;20184;-76
2022/06/25 08:33:03;;;;;;;16.50;14.90;;;26.00;99.40;;;;;;10496160;28;20252;-79
2022/06/25 08:38:05;;;;;;;4.20;3.90;;;25.90;98.70;;;;;;10494866;28;20220;-79
2022/06/25 08:43:07;;;;;;;3.20;3.00;;;25.70;99.90;;;;;;10490403;28;20670;-79
2022/06/25 08:48:15;;;;;;;2.83;2.63;;;25.90;99.90;;;;;;10474446;28;20203;-78
2022/06/25 08:53:18;;;;;;;4.43;2.10;;;26.20;98.30;;;;;;10490742;28;20790;-79
2022/06/25 08:58:21;;;;;;;2.50;2.40;;;26.90;96.60;;;;;;10488420;28;20221;-77
2022/06/25 09:03:25;;;;;;;4.10;2.20;;;27.80;96.20;;;;;;10486304;28;20319;-76
2022/06/25 09:08:27;;;;;;;2.53;2.43;;;28.60;94.40;;;;;;10486858;28;20201;-76
2022/06/25 09:13:29;;;;;;;3.80;3.00;;;29.10;92.70;;;;;;10483737;28;20250;-77
2022/06/25 09:18:35;;;;;;;2.50;2.40;;;28.80;94.20;;;;;;10486278;28;20231;-76
2022/06/25 09:23:56;;;;;;;2.20;2.10;;;29.20;91.90;;;;;;10486212;28;20771;-77
2022/06/25 09:29:01;;;;;;;2.33;2.23;;;29.90;90.00;;;;;;10486730;28;20360;-76
2022/06/25 09:34:06;;;;;;;2.83;2.53;;;30.10;87.80;;;;;;10482937;28;20307;-76
2022/06/25 09:39:08;;;;;;;1.97;1.80;;;30.30;87.10;;;;;;10479738;28;20308;-77
2022/06/25 09:44:18;;;;;;;2.13;2.03;;;30.90;83.10;;;;;;10476876;28;20213;-78
2022/06/25 09:49:24;;;;;;;2.10;2.00;;;31.20;79.50;;;;;;10485006;28;21066;-75
2022/06/25 09:54:27;;;;;;;2.10;2.00;;;31.60;77.10;;;;;;10471183;28;20311;-76
2022/06/25 09:59:32;;;;;;;2.47;2.30;;;32.70;72.50;;;;;;10487875;28;20299;-77
2022/06/25 10:04:37;;;;;;;2.43;2.30;;;33.70;70.20;;;;;;10470286;28;20231;-77
2022/06/25 10:09:41;;;;;;;2.20;2.00;;;35.10;69.90;;;;;;10488421;28;20291;-78
2022/06/25 10:14:46;;;;;;;2.20;2.08;;;37.10;62.90;;;;;;10487265;28;20301;-78
2022/06/25 10:19:49;;;;;;;1.80;1.65;;;38.70;59.50;;;;;;10469942;28;20282;-78
2022/06/25 10:24:52;;;;;;;2.25;2.10;;;39.60;54.50;;;;;;10487720;28;20192;-78
2022/06/25 10:29:56;;;;;;;2.40;2.10;;;38.80;52.40;;;;;;10486440;28;20693;-78
2022/06/25 10:35:02;;;;;;;2.33;2.20;;;36.30;54.50;;;;;;10487876;28;20208;-77
2022/06/25 10:40:09;;;;;;;1.93;1.83;;;34.20;57.10;;;;;;10486061;28;20715;-78
2022/06/25 10:45:54;;;;;;;2.50;2.40;;;32.60;58.60;;;;;;10468710;28;20200;-77
2022/06/25 10:50:58;;;;;;;2.60;2.50;;;31.10;59.30;;;;;;10467658;28;20212;-76
2022/06/25 10:56:24;;;;;;;2.90;2.70;;;29.80;59.70;;;;;;10490247;28;21096;-79
2022/06/25 11:01:34;;;;;;;2.50;2.40;;;28.80;64.50;;;;;;10493029;28;20228;-79
2022/06/25 11:06:40;;;;;;;2.30;2.20;;;28.10;69.90;;;;;;10463474;28;20582;-80
2022/06/25 11:11:43;;;;;;;2.30;2.20;;;27.60;69.70;;;;;;10470618;28;20228;-80
2022/06/25 11:16:46;;;;;;;2.37;2.20;;;27.10;71.40;;;;;;10487317;28;20219;-78
2022/06/25 11:21:50;;;;;;;2.67;2.57;;;26.80;71.90;;;;;;10487984;28;21012;-80
2022/06/25 11:32:14;;;;;;;2.57;2.47;;;26.30;74.90;;;;;;10485669;28;20857;-79
2022/06/25 11:37:19;;;;;;;2.73;2.63;;;26.20;72.70;;;;;;10486967;28;20220;-79
2022/06/25 11:42:21;;;;;;;2.67;2.57;;;26.00;74.80;;;;;;10489509;28;20216;-79
2022/06/25 11:47:26;;;;;;;2.77;2.20;;;25.90;74.30;;;;;;10487399;28;20888;-79
2022/06/25 11:52:29;;;;;;;2.53;2.40;;;25.80;70.90;;;;;;10488120;28;20223;-79
2022/06/25 11:57:40;;;;;;;2.03;2.00;;;25.60;73.90;;;;;;10488686;28;20213;-79
2022/06/25 12:02:44;;;;;;;2.73;2.53;;;25.50;72.20;;;;;;10468574;28;20295;-79
2022/06/25 12:07:48;;;;;;;2.40;2.30;;;25.40;75.00;;;;;;10471914;28;20201;-79
2022/06/25 12:12:50;;;;;;;2.83;2.60;;;25.40;73.40;;;;;;10486699;28;20270;-79
2022/06/25 12:18:03;;;;;;;2.37;2.27;;;25.40;74.10;;;;;;10487493;28;20216;-79
2022/06/25 12:23:07;;;;;;;2.53;2.33;;;25.40;73.80;;;;;;10487917;28;20299;-79
2022/06/25 12:28:09;;;;;;;4.87;4.57;;;25.40;72.80;;;;;;10491036;28;20224;-80
2022/06/25 12:33:14;;;;;;;2.63;2.53;;;25.40;73.60;;;;;;10493971;22;20663;-79
2022/06/25 12:38:17;;;;;;;2.90;2.70;;;25.40;72.40;;;;;;10472607;28;20255;-79
2022/06/25 12:43:21;;;;;;;2.17;2.07;;;25.40;74.00;;;;;;10479842;28;20229;-79
2022/06/25 12:48:28;;;;;;;2.13;2.03;;;25.50;68.80;;;;;;10449364;28;20282;-78
2022/06/25 12:53:31;;;;;;;2.57;2.40;;;25.40;69.40;;;;;;10397174;28;20220;-78
2022/06/25 12:58:35;;;;;;;2.70;2.50;;;25.50;71.30;;;;;;10427942;28;20213;-79
2022/06/25 13:03:37;;;;;;;3.10;2.73;;;25.60;72.90;;;;;;10426200;28;20229;-79
2022/06/25 13:08:41;;;;;;;3.10;3.00;;;25.60;70.90;;;;;;10429129;28;20203;-79
2022/06/25 13:13:43;;;;;;;1.80;1.70;;;25.60;70.50;;;;;;10450477;28;20228;-78
2022/06/25 13:18:46;;;;;;;2.27;2.00;;;25.60;70.90;;;;;;10444574;28;20223;-79
2022/06/25 13:23:49;;;;;;;2.30;2.20;;;25.60;71.80;;;;;;10409404;28;20233;-79
2022/06/25 13:28:52;;;;;;;2.40;2.20;;;25.50;74.10;;;;;;10435601;28;20201;-78
2022/06/25 13:33:54;;;;;;;1.90;1.80;;;25.50;72.00;;;;;;10447387;28;20641;-78
2022/06/25 13:38:57;;;;;;;2.10;2.00;;;25.40;74.30;;;;;;10452782;28;20220;-79
2022/06/25 13:44:00;;;;;;;2.63;2.53;;;25.40;73.00;;;;;;10434486;28;20217;-78
2022/06/25 13:49:02;;;;;;;2.07;1.97;;;25.30;72.00;;;;;;10452376;28;20193;-78
2022/06/25 13:54:06;;;;;;;2.40;2.30;;;25.30;71.60;;;;;;10460322;28;20240;-78
2022/06/25 13:59:08;;;;;;;2.40;2.27;;;25.40;76.90;;;;;;10444914;28;20587;-78
2022/06/25 14:04:10;;;;;;;2.07;1.97;;;25.50;74.50;;;;;;10445204;28;20225;-78
2022/06/25 14:09:15;;;;;;;2.00;1.90;;;25.50;71.70;;;;;;10435628;28;20634;-78
2022/06/25 14:14:17;;;;;;;2.47;2.27;;;25.50;72.60;;;;;;10427034;28;20248;-78
2022/06/25 14:19:19;;;;;;;1.57;1.47;;;25.50;69.70;;;;;;10435363;28;20217;-78
2022/06/25 14:29:39;;;;;;;2.07;1.97;;;25.50;72.90;;;;;;10442547;28;20259;-79
2022/06/25 14:34:41;;;;;;;2.20;2.10;;;25.60;68.00;;;;;;10428485;28;20237;-79
2022/06/25 14:45:05;;;;;;;2.57;2.37;;;25.50;69.20;;;;;;10459931;28;20227;-79
2022/06/25 14:50:09;;;;;;;2.10;2.00;;;25.40;73.10;;;;;;10463389;28;20201;-78
2022/06/25 14:55:13;;;;;;;2.03;1.93;;;25.40;72.40;;;;;;10443447;28;20316;-79
2022/06/25 15:00:15;;;;;;;2.20;2.10;;;25.40;71.50;;;;;;10420305;28;20217;-79
2022/06/25 15:05:19;;;;;;;2.30;2.20;;;25.50;69.30;;;;;;10446844;28;20217;-79
2022/06/25 15:10:24;;;;;;;2.20;2.10;;;25.50;72.10;;;;;;10426727;28;20200;-78
2022/06/25 15:15:27;;;;;;;2.47;2.23;;;25.50;69.60;;;;;;10459281;28;20256;-78
2022/06/25 15:20:29;;;;;;;2.20;2.10;;;25.40;72.50;;;;;;10417617;28;20201;-79
2022/06/25 15:25:33;;;;;;;2.40;2.20;;;25.40;76.70;;;;;;10444781;28;20201;-79
2022/06/25 15:30:35;;;;;;;2.90;2.70;;;25.30;77.80;;;;;;10452325;28;20284;-80
2022/06/25 15:35:37;;;;;;;2.10;2.00;;;25.30;77.80;;;;;;10458317;28;20258;-80
2022/06/25 15:40:41;;;;;;;2.33;1.90;;;25.40;73.20;;;;;;10441660;28;20193;-80
2022/06/25 15:45:43;;;;;;;2.23;2.13;;;25.50;78.80;;;;;;10424476;28;20220;-80
2022/06/25 15:50:46;;;;;;;2.63;2.43;;;25.40;75.40;;;;;;10422532;28;20251;-80
2022/06/25 15:55:49;;;;;;;2.30;2.20;;;25.50;74.70;;;;;;10446201;28;20259;-80
2022/06/25 16:00:52;;;;;;;2.40;2.20;;;25.50;71.70;;;;;;10427154;28;20226;-80
2022/06/25 16:05:54;;;;;;;1.93;1.83;;;25.50;73.50;;;;;;10438358;28;20578;-80
2022/06/25 16:10:57;;;;;;;2.57;2.47;;;25.50;73.80;;;;;;10433744;28;20255;-80
2022/06/25 16:15:59;;;;;;;2.40;2.20;;;25.50;75.20;;;;;;10456683;28;20213;-80
2022/06/25 16:21:02;;;;;;;2.40;2.30;;;25.50;78.30;;;;;;10455539;28;20296;-80
2022/06/25 16:26:05;;;;;;;2.10;2.00;;;25.50;76.30;;;;;;10437658;28;20255;-80
2022/06/25 16:31:07;;;;;;;2.27;2.07;;;25.60;72.60;;;;;;10453257;28;20222;-80
2022/06/25 16:36:10;;;;;;;2.40;2.20;;;25.60;74.20;;;;;;10435006;28;20205;-80
2022/06/25 16:41:13;;;;;;;4.70;2.90;;;25.50;76.50;;;;;;10452597;28;20247;-79
2022/06/25 16:46:16;;;;;;;2.33;2.23;;;25.50;78.40;;;;;;10431195;28;20672;-80
2022/06/25 16:51:18;;;;;;;2.30;2.20;;;25.50;75.20;;;;;;10417254;28;20214;-79
2022/06/25 16:56:22;;;;;;;2.60;2.50;;;25.40;78.70;;;;;;10420011;28;20205;-79
2022/06/25 17:01:24;;;;;;;2.47;2.37;;;25.50;75.00;;;;;;10408688;28;20267;-80
2022/06/25 17:06:27;;;;;;;3.03;2.80;;;25.30;77.90;;;;;;10452064;28;20204;-80
2022/06/25 17:11:31;;;;;;;2.70;2.60;;;25.30;75.00;;;;;;10439936;28;20247;-79
2022/06/25 17:16:34;;;;;;;2.33;2.23;;;25.30;78.10;;;;;;10458508;28;20238;-80
2022/06/25 17:21:36;;;;;;;2.40;2.30;;;25.20;78.50;;;;;;10458182;28;20300;-79
2022/06/25 17:26:39;;;;;;;2.50;2.33;;;25.10;77.90;;;;;;10458338;28;20247;-80
2022/06/25 17:31:41;;;;;;;1.90;1.80;;;25.20;75.80;;;;;;10458242;28;20229;-80
2022/06/25 17:36:43;;;;;;;3.00;2.10;;;25.10;79.20;;;;;;10440280;28;20303;-80
2022/06/25 17:41:47;;;;;;;2.67;2.47;;;25.10;77.10;;;;;;10458238;28;20653;-80
2022/06/25 17:46:49;;;;;;;2.57;2.20;;;25.10;80.50;;;;;;10457542;28;20284;-80
2022/06/25 17:51:51;;;;;;;2.90;2.70;;;25.00;81.30;;;;;;10458412;28;20229;-80
2022/06/25 17:56:55;;;;;;;3.00;2.80;;;24.90;76.90;;;;;;10440764;28;20265;-80
2022/06/25 18:01:57;;;;;;;3.10;2.90;;;24.80;79.60;;;;;;10458236;28;20271;-80
2022/06/25 18:06:59;;;;;;;3.87;3.03;;;24.80;82.50;;;;;;10426905;28;20190;-80
2022/06/25 18:12:03;;;;;;;2.27;2.17;;;24.80;82.80;;;;;;10431812;28;20221;-80
2022/06/25 18:17:06;;;;;;;2.80;2.60;;;24.80;83.00;;;;;;10447934;28;20377;-79
2022/06/25 18:22:08;;;;;;;2.97;2.77;;;24.70;83.60;;;;;;10464535;28;20232;-79
2022/06/25 18:27:11;;;;;;;2.40;2.30;;;24.70;84.50;;;;;;10447028;28;20209;-79
2022/06/25 18:32:14;;;;;;;4.97;2.83;;;24.60;84.40;;;;;;10487997;22;20236;-78
2022/06/25 18:37:16;;;;;;;3.50;3.30;;;24.60;84.10;;;;;;10486527;28;20622;-78
2022/06/25 18:42:21;;;;;;;3.50;3.20;;;24.50;85.30;;;;;;10504822;28;20224;-77
2022/06/25 18:47:23;;;;;;;2.87;2.67;;;24.40;86.40;;;;;;10496451;28;20205;-77
2022/06/25 18:52:25;;;;;;;3.60;3.30;;;24.40;85.80;;;;;;10498593;28;20221;-78
2022/06/25 18:57:29;;;;;;;2.90;2.70;;;24.30;86.20;;;;;;10480767;28;20284;-78
2022/06/25 19:02:31;;;;;;;3.63;2.80;;;24.20;86.10;;;;;;10500965;28;20216;-78
2022/06/25 19:07:33;;;;;;;3.03;2.93;;;24.10;86.30;;;;;;10501922;28;20231;-78
2022/06/25 19:12:36;;;;;;;3.33;3.07;;;24.00;86.10;;;;;;10491371;28;20629;-78
2022/06/25 19:17:40;;;;;;;4.10;3.80;;;24.00;86.50;;;;;;10484629;28;20206;-78
2022/06/25 19:22:42;;;;;;;3.20;3.10;;;23.80;86.60;;;;;;10497906;28;20213;-78
2022/06/25 19:27:45;;;;;;;3.10;3.00;;;23.80;87.00;;;;;;10499868;28;20204;-78
2022/06/25 19:32:48;;;;;;;2.80;2.70;;;23.70;87.60;;;;;;10496161;28;20307;-78
2022/06/25 19:37:50;;;;;;;2.83;2.63;;;23.60;88.10;;;;;;10497093;28;20205;-76
2022/06/25 19:42:53;;;;;;;3.27;2.97;;;23.50;87.50;;;;;;10500066;28;20572;-77
2022/06/25 19:47:55;;;;;;;3.50;2.90;;;23.40;87.50;;;;;;10497939;28;20196;-78
2022/06/25 19:52:58;;;;;;;2.83;2.70;;;23.30;87.40;;;;;;10491810;28;20507;-77
2022/06/25 19:58:02;;;;;;;5.07;3.93;;;23.30;88.20;;;;;;10496616;28;20224;-78
2022/06/25 20:03:04;;;;;;;4.43;2.90;;;23.20;87.70;;;;;;10493400;28;20274;-78
2022/06/25 20:08:06;;;;;;;3.43;3.20;;;23.10;87.60;;;;;;10493272;28;20208;-78
2022/06/25 20:13:10;;;;;;;3.40;3.20;;;23.00;87.70;;;;;;10496135;28;20248;-78
2022/06/25 20:18:13;;;;;;;3.47;3.27;;;23.00;88.90;;;;;;10497034;28;20218;-78
2022/06/25 20:23:15;;;;;;;2.93;2.83;;;22.90;89.50;;;;;;10490563;28;20224;-78
2022/06/25 20:28:18;;;;;;;3.10;2.90;;;22.80;88.40;;;;;;10474312;28;20608;-78
2022/06/25 20:33:21;;;;;;;3.27;3.00;;;22.80;90.10;;;;;;10492303;28;20611;-78
2022/06/25 20:38:23;;;;;;;6.20;5.80;;;22.70;89.10;;;;;;10473170;28;20221;-77
2022/06/25 20:43:26;;;;;;;2.83;2.73;;;22.70;90.60;;;;;;10499606;28;20236;-78
2022/06/25 20:48:29;;;;;;;2.70;2.60;;;22.70;90.60;;;;;;10496469;28;20195;-78
2022/06/25 20:53:31;;;;;;;2.80;2.63;;;22.60;90.60;;;;;;10473481;28;20628;-77
2022/06/25 20:58:34;;;;;;;2.80;2.70;;;22.60;89.70;;;;;;10474148;28;20224;-77
2022/06/25 21:08:56;;;;;;;3.63;3.43;;;22.60;90.90;;;;;;10494975;28;20518;-77
2022/06/25 21:14:01;;;;;;;4.00;3.80;;;22.50;91.50;;;;;;10495918;28;20220;-77
2022/06/25 21:19:03;;;;;;;4.70;4.40;;;22.40;90.50;;;;;;10490572;28;20223;-78
2022/06/25 21:24:06;;;;;;;4.10;3.80;;;22.40;91.00;;;;;;10492342;28;20222;-78
2022/06/25 21:29:09;;;;;;;4.20;3.90;;;22.40;90.70;;;;;;10490863;28;20193;-77
2022/06/25 21:34:11;;;;;;;3.30;3.10;;;22.40;91.50;;;;;;10476057;28;20281;-79
2022/06/25 21:39:14;;;;;;;3.53;3.37;;;22.30;91.00;;;;;;10421736;28;20510;-79
2022/06/25 21:44:17;;;;;;;3.17;3.00;;;22.30;91.70;;;;;;10474563;28;20906;-78
2022/06/25 21:49:19;;;;;;;3.23;3.10;;;22.20;92.00;;;;;;10480642;28;20197;-77
2022/06/25 21:54:21;;;;;;;3.27;3.07;;;22.20;91.70;;;;;;10462348;28;20289;-77
2022/06/25 21:59:25;;;;;;;2.73;2.60;;;22.10;91.10;;;;;;10468790;28;20248;-78
2022/06/25 22:04:27;;;;;;;3.23;3.07;;;22.10;90.90;;;;;;10481679;28;20302;-78
2022/06/25 22:09:29;;;;;;;4.93;4.60;;;22.10;91.30;;;;;;10475221;28;20236;-79
2022/06/25 22:14:33;;;;;;;5.30;5.00;;;22.00;91.20;;;;;;10474539;28;20574;-78
2022/06/25 22:19:35;;;;;;;3.97;3.77;;;21.90;91.60;;;;;;10469027;28;20563;-78
2022/06/25 22:24:37;;;;;;;3.60;3.40;;;21.80;91.40;;;;;;10485381;28;20224;-78
2022/06/25 22:29:40;;;;;;;4.07;3.67;;;21.70;91.40;;;;;;10476615;28;20207;-77
2022/06/25 22:34:42;;;;;;;3.63;3.43;;;21.70;91.70;;;;;;10455980;28;20662;-77
2022/06/25 22:39:45;;;;;;;3.70;3.50;;;21.60;91.90;;;;;;10466979;28;20227;-79
2022/06/25 22:44:48;;;;;;;3.43;3.23;;;21.60;92.00;;;;;;10471422;28;20245;-77
2022/06/25 22:49:50;;;;;;;3.67;3.37;;;21.50;92.40;;;;;;10478995;28;20257;-77
2022/06/25 22:54:52;;;;;;;3.20;3.10;;;21.40;92.60;;;;;;10454569;28;20888;-79
2022/06/25 22:59:56;;;;;;;3.67;3.47;;;21.40;92.60;;;;;;10463335;28;20216;-77
2022/06/25 23:04:58;;;;;;;3.13;2.93;;;21.30;92.80;;;;;;10479160;28;20591;-79
2022/06/25 23:10:00;;;;;;;3.40;2.97;;;21.30;93.10;;;;;;10476545;28;20668;-77
2022/06/25 23:15:06;;;;;;;3.10;3.00;;;21.30;93.30;;;;;;10483464;28;20224;-77
2022/06/25 23:20:10;;;;;;;3.17;2.97;;;21.20;93.10;;;;;;10483659;28;20320;-77
2022/06/25 23:25:12;;;;;;;3.30;3.10;;;21.20;93.40;;;;;;10485209;28;20228;-78
2022/06/25 23:30:16;;;;;;;3.40;3.07;;;21.20;93.50;;;;;;10489622;28;20192;-80
2022/06/25 23:35:20;;;;;;;2.80;2.70;;;21.20;93.60;;;;;;10485495;28;20220;-79
2022/06/25 23:40:22;;;;;;;3.20;3.00;;;21.20;93.40;;;;;;10492722;28;20438;-80
2022/06/25 23:45:26;;;;;;;3.30;3.20;;;21.20;93.60;;;;;;10486684;28;20224;-79
2022/06/25 23:50:28;;;;;;;2.70;2.60;;;21.20;92.80;;;;;;10486710;28;20563;-77
2022/06/25 23:55:30;;;;;;;3.10;3.00;;;21.10;93.20;;;;;;10487364;28;20738;-80
